sensor_id;sensor_type;location;lat;lon;timestamp;P1;durP1;ratioP1;P2;durP2;ratioP2
23802;SDS011;12082;51.786;6.018;2024-01-27T00:01:37;26.93;;;5.00;;
23802;SDS011;12082;51.786;6.018;2024-01-27T00:04:03;13.67;;;4.60;;
23802;SDS011;12082;51.786;6.018;2024-01-27T00:06:29;16.53;;;4.50;;
23802;SDS011;12082;51.786;6.018;2024-01-27T00:08:55;31.27;;;4.90;;
23802;SDS011;12082;51.786;6.018;2024-01-27T00:11:21;14.37;;;4.80;;
23802;SDS011;12082;51.786;6.018;2024-01-27T00:13:49;20.97;;;4.93;;
23802;SDS011;12082;51.786;6.018;2024-01-27T00:16:15;16.67;;;4.80;;
23802;SDS011;12082;51.786;6.018;2024-01-27T00:18:41;15.80;;;4.00;;
23802;SDS011;12082;51.786;6.018;2024-01-27T00:21:07;25.83;;;5.00;;
23802;SDS011;12082;51.786;6.018;2024-01-27T00:23:33;21.37;;;4.87;;
23802;SDS011;12082;51.786;6.018;2024-01-27T00:26:02;22.27;;;5.63;;
23802;SDS011;12082;51.786;6.018;2024-01-27T00:28:28;14.20;;;4.50;;
23802;SDS011;12082;51.786;6.018;2024-01-27T00:30:54;11.07;;;4.20;;
23802;SDS011;12082;51.786;6.018;2024-01-27T00:33:21;17.00;;;5.90;;
23802;SDS011;12082;51.786;6.018;2024-01-27T00:35:47;11.60;;;4.67;;
23802;SDS011;12082;51.786;6.018;2024-01-27T00:38:13;22.70;;;4.57;;
23802;SDS011;12082;51.786;6.018;2024-01-27T00:40:39;17.17;;;5.00;;
23802;SDS011;12082;51.786;6.018;2024-01-27T00:43:05;17.27;;;5.27;;
23802;SDS011;12082;51.786;6.018;2024-01-27T00:45:31;14.60;;;4.73;;
23802;SDS011;12082;51.786;6.018;2024-01-27T00:47:57;20.57;;;5.97;;
23802;SDS011;12082;51.786;6.018;2024-01-27T00:50:24;20.20;;;5.87;;
23802;SDS011;12082;51.786;6.018;2024-01-27T00:52:50;25.53;;;5.23;;
23802;SDS011;12082;51.786;6.018;2024-01-27T00:55:16;12.63;;;4.30;;
23802;SDS011;12082;51.786;6.018;2024-01-27T00:57:44;12.50;;;4.67;;
23802;SDS011;12082;51.786;6.018;2024-01-27T01:00:10;20.03;;;4.33;;
23802;SDS011;12082;51.786;6.018;2024-01-27T01:02:37;27.73;;;5.33;;
23802;SDS011;12082;51.786;6.018;2024-01-27T01:05:03;15.83;;;4.20;;
23802;SDS011;12082;51.786;6.018;2024-01-27T01:07:30;16.37;;;5.87;;
23802;SDS011;12082;51.786;6.018;2024-01-27T01:09:56;18.40;;;5.53;;
23802;SDS011;12082;51.786;6.018;2024-01-27T01:12:22;18.97;;;5.33;;
23802;SDS011;12082;51.786;6.018;2024-01-27T01:14:48;19.40;;;4.50;;
23802;SDS011;12082;51.786;6.018;2024-01-27T01:17:14;15.03;;;4.27;;
23802;SDS011;12082;51.786;6.018;2024-01-27T01:19:40;19.13;;;6.03;;
23802;SDS011;12082;51.786;6.018;2024-01-27T01:22:07;17.70;;;5.37;;
23802;SDS011;12082;51.786;6.018;2024-01-27T01:24:33;16.97;;;5.37;;
23802;SDS011;12082;51.786;6.018;2024-01-27T01:26:59;10.53;;;4.70;;
23802;SDS011;12082;51.786;6.018;2024-01-27T01:29:25;20.27;;;5.20;;
23802;SDS011;12082;51.786;6.018;2024-01-27T01:31:51;13.70;;;5.40;;
23802;SDS011;12082;51.786;6.018;2024-01-27T01:34:17;21.00;;;5.60;;
23802;SDS011;12082;51.786;6.018;2024-01-27T01:36:43;18.77;;;4.57;;
23802;SDS011;12082;51.786;6.018;2024-01-27T01:39:10;14.20;;;4.97;;
23802;SDS011;12082;51.786;6.018;2024-01-27T01:41:38;16.57;;;5.53;;
23802;SDS011;12082;51.786;6.018;2024-01-27T01:44:04;16.60;;;5.13;;
23802;SDS011;12082;51.786;6.018;2024-01-27T01:46:30;11.43;;;4.80;;
23802;SDS011;12082;51.786;6.018;2024-01-27T01:48:56;17.33;;;7.07;;
23802;SDS011;12082;51.786;6.018;2024-01-27T01:51:22;18.77;;;5.73;;
23802;SDS011;12082;51.786;6.018;2024-01-27T01:53:48;18.73;;;6.13;;
23802;SDS011;12082;51.786;6.018;2024-01-27T01:56:17;11.23;;;5.43;;
23802;SDS011;12082;51.786;6.018;2024-01-27T01:58:44;18.37;;;7.30;;
23802;SDS011;12082;51.786;6.018;2024-01-27T02:01:10;12.93;;;5.13;;
23802;SDS011;12082;51.786;6.018;2024-01-27T02:03:36;16.30;;;5.80;;
23802;SDS011;12082;51.786;6.018;2024-01-27T02:06:02;12.50;;;5.40;;
23802;SDS011;12082;51.786;6.018;2024-01-27T02:08:28;15.63;;;6.77;;
23802;SDS011;12082;51.786;6.018;2024-01-27T02:10:54;16.47;;;6.27;;
23802;SDS011;12082;51.786;6.018;2024-01-27T02:13:20;18.97;;;6.17;;
23802;SDS011;12082;51.786;6.018;2024-01-27T02:15:47;30.77;;;6.90;;
23802;SDS011;12082;51.786;6.018;2024-01-27T02:18:13;23.03;;;6.27;;
23802;SDS011;12082;51.786;6.018;2024-01-27T02:20:39;17.33;;;6.43;;
23802;SDS011;12082;51.786;6.018;2024-01-27T02:23:05;15.93;;;6.07;;
23802;SDS011;12082;51.786;6.018;2024-01-27T02:25:32;21.90;;;7.70;;
23802;SDS011;12082;51.786;6.018;2024-01-27T02:27:58;16.43;;;6.77;;
23802;SDS011;12082;51.786;6.018;2024-01-27T02:30:24;16.97;;;6.47;;
23802;SDS011;12082;51.786;6.018;2024-01-27T02:32:51;25.20;;;7.07;;
23802;SDS011;12082;51.786;6.018;2024-01-27T02:35:17;19.00;;;6.27;;
23802;SDS011;12082;51.786;6.018;2024-01-27T02:37:43;16.50;;;7.47;;
23802;SDS011;12082;51.786;6.018;2024-01-27T02:40:09;10.57;;;6.43;;
23802;SDS011;12082;51.786;6.018;2024-01-27T02:42:35;21.00;;;6.90;;
23802;SDS011;12082;51.786;6.018;2024-01-27T02:45:01;21.70;;;7.00;;
23802;SDS011;12082;51.786;6.018;2024-01-27T02:47:27;17.20;;;7.67;;
23802;SDS011;12082;51.786;6.018;2024-01-27T02:49:53;19.37;;;8.03;;
23802;SDS011;12082;51.786;6.018;2024-01-27T02:52:20;18.13;;;6.73;;
23802;SDS011;12082;51.786;6.018;2024-01-27T02:54:46;19.30;;;6.67;;
23802;SDS011;12082;51.786;6.018;2024-01-27T02:57:12;19.07;;;7.27;;
23802;SDS011;12082;51.786;6.018;2024-01-27T02:59:40;21.20;;;8.00;;
23802;SDS011;12082;51.786;6.018;2024-01-27T03:02:06;22.83;;;8.30;;
23802;SDS011;12082;51.786;6.018;2024-01-27T03:04:32;19.43;;;8.17;;
23802;SDS011;12082;51.786;6.018;2024-01-27T03:06:58;13.80;;;8.20;;
23802;SDS011;12082;51.786;6.018;2024-01-27T03:09:24;18.97;;;8.13;;
23802;SDS011;12082;51.786;6.018;2024-01-27T03:11:50;19.47;;;8.67;;
23802;SDS011;12082;51.786;6.018;2024-01-27T03:14:16;25.90;;;9.30;;
23802;SDS011;12082;51.786;6.018;2024-01-27T03:16:42;23.03;;;8.27;;
23802;SDS011;12082;51.786;6.018;2024-01-27T03:19:09;20.20;;;9.17;;
23802;SDS011;12082;51.786;6.018;2024-01-27T03:21:35;18.47;;;8.83;;
23802;SDS011;12082;51.786;6.018;2024-01-27T03:24:01;22.50;;;9.13;;
23802;SDS011;12082;51.786;6.018;2024-01-27T03:26:28;26.33;;;9.17;;
23802;SDS011;12082;51.786;6.018;2024-01-27T03:28:53;18.60;;;9.03;;
23802;SDS011;12082;51.786;6.018;2024-01-27T03:31:19;28.80;;;9.53;;
23802;SDS011;12082;51.786;6.018;2024-01-27T03:33:45;22.70;;;8.63;;
23802;SDS011;12082;51.786;6.018;2024-01-27T03:36:12;20.43;;;8.33;;
23802;SDS011;12082;51.786;6.018;2024-01-27T03:38:38;25.97;;;10.27;;
23802;SDS011;12082;51.786;6.018;2024-01-27T03:41:04;24.47;;;8.40;;
23802;SDS011;12082;51.786;6.018;2024-01-27T03:43:30;21.67;;;8.77;;
23802;SDS011;12082;51.786;6.018;2024-01-27T03:45:57;20.77;;;8.80;;
23802;SDS011;12082;51.786;6.018;2024-01-27T03:48:23;24.10;;;10.40;;
23802;SDS011;12082;51.786;6.018;2024-01-27T03:50:49;27.97;;;10.57;;
23802;SDS011;12082;51.786;6.018;2024-01-27T03:53:15;19.47;;;9.03;;
23802;SDS011;12082;51.786;6.018;2024-01-27T03:55:41;20.63;;;9.37;;
23802;SDS011;12082;51.786;6.018;2024-01-27T03:58:06;27.27;;;10.00;;
23802;SDS011;12082;51.786;6.018;2024-01-27T04:00:33;20.03;;;10.10;;
23802;SDS011;12082;51.786;6.018;2024-01-27T04:02:59;26.30;;;10.90;;
23802;SDS011;12082;51.786;6.018;2024-01-27T04:05:25;28.20;;;11.43;;
23802;SDS011;12082;51.786;6.018;2024-01-27T04:07:52;27.63;;;9.80;;
23802;SDS011;12082;51.786;6.018;2024-01-27T04:10:18;29.37;;;10.27;;
23802;SDS011;12082;51.786;6.018;2024-01-27T04:12:45;24.37;;;10.13;;
23802;SDS011;12082;51.786;6.018;2024-01-27T04:15:11;25.33;;;9.43;;
23802;SDS011;12082;51.786;6.018;2024-01-27T04:17:37;27.13;;;10.37;;
23802;SDS011;12082;51.786;6.018;2024-01-27T04:20:03;20.30;;;9.77;;
23802;SDS011;12082;51.786;6.018;2024-01-27T04:22:29;19.57;;;9.83;;
23802;SDS011;12082;51.786;6.018;2024-01-27T04:24:55;23.03;;;10.23;;
23802;SDS011;12082;51.786;6.018;2024-01-27T04:27:21;17.30;;;9.00;;
23802;SDS011;12082;51.786;6.018;2024-01-27T04:29:48;23.87;;;9.73;;
23802;SDS011;12082;51.786;6.018;2024-01-27T04:32:14;20.37;;;10.73;;
23802;SDS011;12082;51.786;6.018;2024-01-27T04:34:40;23.67;;;10.77;;
23802;SDS011;12082;51.786;6.018;2024-01-27T04:37:06;22.60;;;10.83;;
23802;SDS011;12082;51.786;6.018;2024-01-27T04:39:32;28.13;;;10.63;;
23802;SDS011;12082;51.786;6.018;2024-01-27T04:41:58;28.63;;;11.10;;
23802;SDS011;12082;51.786;6.018;2024-01-27T04:44:24;20.13;;;9.83;;
23802;SDS011;12082;51.786;6.018;2024-01-27T04:46:50;27.27;;;10.87;;
23802;SDS011;12082;51.786;6.018;2024-01-27T04:49:16;29.80;;;11.77;;
23802;SDS011;12082;51.786;6.018;2024-01-27T04:51:42;29.60;;;11.80;;
23802;SDS011;12082;51.786;6.018;2024-01-27T04:54:08;19.87;;;11.43;;
23802;SDS011;12082;51.786;6.018;2024-01-27T04:56:34;32.00;;;11.50;;
23802;SDS011;12082;51.786;6.018;2024-01-27T04:59:00;20.27;;;11.33;;
23802;SDS011;12082;51.786;6.018;2024-01-27T05:01:26;25.83;;;10.77;;
23802;SDS011;12082;51.786;6.018;2024-01-27T05:03:52;27.30;;;11.50;;
23802;SDS011;12082;51.786;6.018;2024-01-27T05:06:18;25.73;;;11.67;;
23802;SDS011;12082;51.786;6.018;2024-01-27T05:08:44;19.63;;;11.73;;
23802;SDS011;12082;51.786;6.018;2024-01-27T05:11:10;21.83;;;10.63;;
23802;SDS011;12082;51.786;6.018;2024-01-27T05:13:36;21.57;;;11.00;;
23802;SDS011;12082;51.786;6.018;2024-01-27T05:16:05;24.50;;;10.97;;
23802;SDS011;12082;51.786;6.018;2024-01-27T05:18:31;25.43;;;10.53;;
23802;SDS011;12082;51.786;6.018;2024-01-27T05:20:57;24.13;;;10.70;;
23802;SDS011;12082;51.786;6.018;2024-01-27T05:23:23;22.57;;;10.33;;
23802;SDS011;12082;51.786;6.018;2024-01-27T05:25:49;27.27;;;10.90;;
23802;SDS011;12082;51.786;6.018;2024-01-27T05:28:15;24.30;;;12.07;;
23802;SDS011;12082;51.786;6.018;2024-01-27T05:30:41;29.27;;;11.73;;
23802;SDS011;12082;51.786;6.018;2024-01-27T05:33:07;17.77;;;10.07;;
23802;SDS011;12082;51.786;6.018;2024-01-27T05:35:33;24.30;;;11.53;;
23802;SDS011;12082;51.786;6.018;2024-01-27T05:37:59;22.50;;;10.80;;
23802;SDS011;12082;51.786;6.018;2024-01-27T05:40:25;22.93;;;10.80;;
23802;SDS011;12082;51.786;6.018;2024-01-27T05:42:51;22.30;;;10.53;;
23802;SDS011;12082;51.786;6.018;2024-01-27T05:45:17;28.20;;;11.27;;
23802;SDS011;12082;51.786;6.018;2024-01-27T05:47:43;24.70;;;10.80;;
23802;SDS011;12082;51.786;6.018;2024-01-27T05:50:09;17.63;;;10.63;;
23802;SDS011;12082;51.786;6.018;2024-01-27T05:52:35;23.70;;;11.27;;
23802;SDS011;12082;51.786;6.018;2024-01-27T05:55:02;25.63;;;11.63;;
23802;SDS011;12082;51.786;6.018;2024-01-27T05:57:31;22.70;;;11.70;;
23802;SDS011;12082;51.786;6.018;2024-01-27T05:59:57;25.43;;;11.50;;
23802;SDS011;12082;51.786;6.018;2024-01-27T06:02:23;31.73;;;11.63;;
23802;SDS011;12082;51.786;6.018;2024-01-27T06:04:49;26.47;;;11.03;;
23802;SDS011;12082;51.786;6.018;2024-01-27T06:07:15;25.27;;;10.87;;
23802;SDS011;12082;51.786;6.018;2024-01-27T06:09:41;26.07;;;12.43;;
23802;SDS011;12082;51.786;6.018;2024-01-27T06:12:07;24.37;;;11.53;;
23802;SDS011;12082;51.786;6.018;2024-01-27T06:14:33;23.73;;;11.70;;
23802;SDS011;12082;51.786;6.018;2024-01-27T06:16:58;17.37;;;10.33;;
23802;SDS011;12082;51.786;6.018;2024-01-27T06:19:25;29.00;;;11.13;;
23802;SDS011;12082;51.786;6.018;2024-01-27T06:21:51;23.30;;;11.70;;
23802;SDS011;12082;51.786;6.018;2024-01-27T06:24:17;21.87;;;12.10;;
23802;SDS011;12082;51.786;6.018;2024-01-27T06:26:43;29.30;;;12.53;;
23802;SDS011;12082;51.786;6.018;2024-01-27T06:29:09;21.87;;;11.60;;
23802;SDS011;12082;51.786;6.018;2024-01-27T06:31:35;23.87;;;10.43;;
23802;SDS011;12082;51.786;6.018;2024-01-27T06:34:01;25.20;;;11.30;;
23802;SDS011;12082;51.786;6.018;2024-01-27T06:36:27;21.97;;;12.10;;
23802;SDS011;12082;51.786;6.018;2024-01-27T06:38:53;28.80;;;12.57;;
23802;SDS011;12082;51.786;6.018;2024-01-27T06:41:19;28.47;;;12.70;;
23802;SDS011;12082;51.786;6.018;2024-01-27T06:43:45;25.57;;;13.20;;
23802;SDS011;12082;51.786;6.018;2024-01-27T06:46:11;24.93;;;11.63;;
23802;SDS011;12082;51.786;6.018;2024-01-27T06:48:37;30.50;;;13.43;;
23802;SDS011;12082;51.786;6.018;2024-01-27T06:51:03;26.37;;;11.77;;
23802;SDS011;12082;51.786;6.018;2024-01-27T06:53:29;29.80;;;13.20;;
23802;SDS011;12082;51.786;6.018;2024-01-27T06:55:55;25.43;;;11.87;;
23802;SDS011;12082;51.786;6.018;2024-01-27T06:58:21;21.77;;;12.63;;
23802;SDS011;12082;51.786;6.018;2024-01-27T07:00:47;29.77;;;13.37;;
23802;SDS011;12082;51.786;6.018;2024-01-27T07:03:13;27.10;;;12.13;;
23802;SDS011;12082;51.786;6.018;2024-01-27T07:05:39;30.07;;;13.10;;
23802;SDS011;12082;51.786;6.018;2024-01-27T07:08:08;26.80;;;12.80;;
23802;SDS011;12082;51.786;6.018;2024-01-27T07:10:34;24.83;;;12.50;;
23802;SDS011;12082;51.786;6.018;2024-01-27T07:13:00;29.37;;;13.20;;
23802;SDS011;12082;51.786;6.018;2024-01-27T07:15:27;26.33;;;12.50;;
23802;SDS011;12082;51.786;6.018;2024-01-27T07:17:53;34.17;;;14.13;;
23802;SDS011;12082;51.786;6.018;2024-01-27T07:20:19;27.03;;;14.70;;
23802;SDS011;12082;51.786;6.018;2024-01-27T07:22:46;27.60;;;14.27;;
23802;SDS011;12082;51.786;6.018;2024-01-27T07:25:13;27.47;;;14.40;;
23802;SDS011;12082;51.786;6.018;2024-01-27T07:27:39;28.03;;;14.60;;
23802;SDS011;12082;51.786;6.018;2024-01-27T07:30:05;34.83;;;14.03;;
23802;SDS011;12082;51.786;6.018;2024-01-27T07:32:34;32.27;;;14.03;;
23802;SDS011;12082;51.786;6.018;2024-01-27T07:35:00;31.43;;;14.83;;
23802;SDS011;12082;51.786;6.018;2024-01-27T07:37:26;34.13;;;13.23;;
23802;SDS011;12082;51.786;6.018;2024-01-27T07:39:52;26.87;;;12.37;;
23802;SDS011;12082;51.786;6.018;2024-01-27T07:42:18;21.13;;;12.47;;
23802;SDS011;12082;51.786;6.018;2024-01-27T07:44:43;27.53;;;13.63;;
23802;SDS011;12082;51.786;6.018;2024-01-27T07:47:09;33.13;;;14.83;;
23802;SDS011;12082;51.786;6.018;2024-01-27T07:49:35;31.47;;;14.13;;
23802;SDS011;12082;51.786;6.018;2024-01-27T07:52:01;28.47;;;13.53;;
23802;SDS011;12082;51.786;6.018;2024-01-27T07:54:27;32.60;;;13.93;;
23802;SDS011;12082;51.786;6.018;2024-01-27T07:56:54;18.87;;;12.43;;
23802;SDS011;12082;51.786;6.018;2024-01-27T07:59:20;27.30;;;13.50;;
23802;SDS011;12082;51.786;6.018;2024-01-27T08:01:46;32.60;;;14.70;;
23802;SDS011;12082;51.786;6.018;2024-01-27T08:04:12;29.03;;;14.40;;
23802;SDS011;12082;51.786;6.018;2024-01-27T08:06:48;36.00;;;14.37;;
23802;SDS011;12082;51.786;6.018;2024-01-27T08:09:15;30.37;;;15.23;;
23802;SDS011;12082;51.786;6.018;2024-01-27T08:11:41;24.57;;;14.10;;
23802;SDS011;12082;51.786;6.018;2024-01-27T08:14:07;29.23;;;13.97;;
23802;SDS011;12082;51.786;6.018;2024-01-27T08:16:33;25.83;;;13.53;;
23802;SDS011;12082;51.786;6.018;2024-01-27T08:18:59;30.27;;;13.40;;
23802;SDS011;12082;51.786;6.018;2024-01-27T08:21:25;28.40;;;14.33;;
23802;SDS011;12082;51.786;6.018;2024-01-27T08:23:52;24.10;;;13.70;;
23802;SDS011;12082;51.786;6.018;2024-01-27T08:26:18;28.47;;;12.77;;
23802;SDS011;12082;51.786;6.018;2024-01-27T08:28:45;29.53;;;11.97;;
23802;SDS011;12082;51.786;6.018;2024-01-27T08:31:11;22.43;;;12.13;;
23802;SDS011;12082;51.786;6.018;2024-01-27T08:33:37;23.70;;;11.57;;
23802;SDS011;12082;51.786;6.018;2024-01-27T08:36:03;22.77;;;10.83;;
23802;SDS011;12082;51.786;6.018;2024-01-27T08:38:29;19.53;;;9.90;;
23802;SDS011;12082;51.786;6.018;2024-01-27T08:40:55;26.13;;;10.77;;
23802;SDS011;12082;51.786;6.018;2024-01-27T08:43:21;21.60;;;9.57;;
23802;SDS011;12082;51.786;6.018;2024-01-27T08:45:47;21.37;;;10.27;;
23802;SDS011;12082;51.786;6.018;2024-01-27T08:48:13;17.90;;;8.90;;
23802;SDS011;12082;51.786;6.018;2024-01-27T08:50:40;19.93;;;9.17;;
23802;SDS011;12082;51.786;6.018;2024-01-27T08:53:06;24.13;;;10.03;;
23802;SDS011;12082;51.786;6.018;2024-01-27T08:55:32;24.27;;;10.03;;
23802;SDS011;12082;51.786;6.018;2024-01-27T08:57:58;24.77;;;9.87;;
23802;SDS011;12082;51.786;6.018;2024-01-27T09:00:24;20.73;;;10.03;;
23802;SDS011;12082;51.786;6.018;2024-01-27T09:02:50;18.40;;;10.50;;
23802;SDS011;12082;51.786;6.018;2024-01-27T09:05:16;24.07;;;10.93;;
23802;SDS011;12082;51.786;6.018;2024-01-27T09:07:42;20.17;;;9.90;;
23802;SDS011;12082;51.786;6.018;2024-01-27T09:10:08;16.40;;;10.07;;
23802;SDS011;12082;51.786;6.018;2024-01-27T09:12:37;22.33;;;9.63;;
23802;SDS011;12082;51.786;6.018;2024-01-27T09:15:04;19.90;;;10.97;;
23802;SDS011;12082;51.786;6.018;2024-01-27T09:17:32;23.53;;;9.80;;
23802;SDS011;12082;51.786;6.018;2024-01-27T09:19:58;16.20;;;8.70;;
23802;SDS011;12082;51.786;6.018;2024-01-27T09:22:24;33.90;;;9.47;;
23802;SDS011;12082;51.786;6.018;2024-01-27T09:24:51;24.53;;;9.47;;
23802;SDS011;12082;51.786;6.018;2024-01-27T09:27:18;15.30;;;8.97;;
23802;SDS011;12082;51.786;6.018;2024-01-27T09:29:44;19.27;;;9.10;;
23802;SDS011;12082;51.786;6.018;2024-01-27T09:32:10;24.07;;;9.00;;
23802;SDS011;12082;51.786;6.018;2024-01-27T09:34:36;25.63;;;10.47;;
23802;SDS011;12082;51.786;6.018;2024-01-27T09:37:02;24.57;;;9.27;;
23802;SDS011;12082;51.786;6.018;2024-01-27T09:39:28;13.90;;;8.03;;
23802;SDS011;12082;51.786;6.018;2024-01-27T09:41:54;21.90;;;8.97;;
23802;SDS011;12082;51.786;6.018;2024-01-27T09:44:21;16.03;;;8.10;;
23802;SDS011;12082;51.786;6.018;2024-01-27T09:46:47;18.67;;;8.83;;
23802;SDS011;12082;51.786;6.018;2024-01-27T09:49:13;17.23;;;8.83;;
23802;SDS011;12082;51.786;6.018;2024-01-27T09:51:42;20.57;;;9.40;;
23802;SDS011;12082;51.786;6.018;2024-01-27T09:54:08;18.77;;;8.37;;
23802;SDS011;12082;51.786;6.018;2024-01-27T09:56:35;20.93;;;8.57;;
23802;SDS011;12082;51.786;6.018;2024-01-27T09:59:01;17.47;;;10.03;;
23802;SDS011;12082;51.786;6.018;2024-01-27T10:01:27;25.23;;;8.83;;
23802;SDS011;12082;51.786;6.018;2024-01-27T10:03:54;20.07;;;9.00;;
23802;SDS011;12082;51.786;6.018;2024-01-27T10:06:20;17.93;;;8.60;;
23802;SDS011;12082;51.786;6.018;2024-01-27T10:08:56;17.23;;;7.77;;
23802;SDS011;12082;51.786;6.018;2024-01-27T10:11:22;27.77;;;9.83;;
23802;SDS011;12082;51.786;6.018;2024-01-27T10:13:56;19.97;;;8.47;;
23802;SDS011;12082;51.786;6.018;2024-01-27T10:16:22;21.53;;;10.33;;
23802;SDS011;12082;51.786;6.018;2024-01-27T10:18:58;24.83;;;9.60;;
23802;SDS011;12082;51.786;6.018;2024-01-27T10:21:24;17.13;;;8.27;;
23802;SDS011;12082;51.786;6.018;2024-01-27T10:23:51;18.77;;;8.77;;
23802;SDS011;12082;51.786;6.018;2024-01-27T10:26:17;19.03;;;9.53;;
23802;SDS011;12082;51.786;6.018;2024-01-27T10:28:51;27.40;;;9.50;;
23802;SDS011;12082;51.786;6.018;2024-01-27T10:31:17;21.20;;;9.47;;
23802;SDS011;12082;51.786;6.018;2024-01-27T10:33:54;27.53;;;9.23;;
23802;SDS011;12082;51.786;6.018;2024-01-27T10:36:21;21.53;;;8.50;;
23802;SDS011;12082;51.786;6.018;2024-01-27T10:38:47;19.13;;;8.70;;
23802;SDS011;12082;51.786;6.018;2024-01-27T10:41:14;15.10;;;7.60;;
23802;SDS011;12082;51.786;6.018;2024-01-27T10:43:42;20.93;;;7.80;;
23802;SDS011;12082;51.786;6.018;2024-01-27T10:46:09;20.43;;;8.53;;
23802;SDS011;12082;51.786;6.018;2024-01-27T10:48:36;19.07;;;7.67;;
23802;SDS011;12082;51.786;6.018;2024-01-27T10:51:11;16.73;;;8.03;;
23802;SDS011;12082;51.786;6.018;2024-01-27T10:53:37;16.47;;;6.60;;
23802;SDS011;12082;51.786;6.018;2024-01-27T10:56:04;20.57;;;7.67;;
23802;SDS011;12082;51.786;6.018;2024-01-27T10:58:34;15.43;;;7.23;;
23802;SDS011;12082;51.786;6.018;2024-01-27T11:01:09;17.17;;;6.47;;
23802;SDS011;12082;51.786;6.018;2024-01-27T11:03:36;17.93;;;7.07;;
23802;SDS011;12082;51.786;6.018;2024-01-27T11:06:04;18.03;;;7.13;;
23802;SDS011;12082;51.786;6.018;2024-01-27T11:08:31;11.53;;;6.70;;
23802;SDS011;12082;51.786;6.018;2024-01-27T11:10:57;23.03;;;8.00;;
23802;SDS011;12082;51.786;6.018;2024-01-27T11:13:23;16.43;;;7.23;;
23802;SDS011;12082;51.786;6.018;2024-01-27T11:15:51;22.87;;;7.03;;
23802;SDS011;12082;51.786;6.018;2024-01-27T11:18:17;18.30;;;7.30;;
23802;SDS011;12082;51.786;6.018;2024-01-27T11:20:44;16.63;;;7.70;;
23802;SDS011;12082;51.786;6.018;2024-01-27T11:23:10;17.67;;;6.80;;
23802;SDS011;12082;51.786;6.018;2024-01-27T11:25:36;14.63;;;6.57;;
23802;SDS011;12082;51.786;6.018;2024-01-27T11:28:10;20.27;;;7.30;;
23802;SDS011;12082;51.786;6.018;2024-01-27T11:30:38;16.63;;;6.87;;
23802;SDS011;12082;51.786;6.018;2024-01-27T11:33:05;15.90;;;7.17;;
23802;SDS011;12082;51.786;6.018;2024-01-27T11:35:31;20.30;;;6.90;;
23802;SDS011;12082;51.786;6.018;2024-01-27T11:37:57;18.13;;;6.53;;
23802;SDS011;12082;51.786;6.018;2024-01-27T11:40:23;16.87;;;6.43;;
23802;SDS011;12082;51.786;6.018;2024-01-27T11:42:56;16.47;;;7.10;;
23802;SDS011;12082;51.786;6.018;2024-01-27T11:45:22;20.60;;;6.30;;
23802;SDS011;12082;51.786;6.018;2024-01-27T11:47:48;15.60;;;6.80;;
23802;SDS011;12082;51.786;6.018;2024-01-27T11:50:14;20.03;;;5.87;;
23802;SDS011;12082;51.786;6.018;2024-01-27T11:52:42;18.70;;;5.80;;
23802;SDS011;12082;51.786;6.018;2024-01-27T11:55:08;18.67;;;6.43;;
23802;SDS011;12082;51.786;6.018;2024-01-27T11:57:34;12.03;;;5.53;;
23802;SDS011;12082;51.786;6.018;2024-01-27T12:00:00;22.30;;;6.10;;
23802;SDS011;12082;51.786;6.018;2024-01-27T12:02:26;25.93;;;6.23;;
23802;SDS011;12082;51.786;6.018;2024-01-27T12:04:52;10.13;;;5.10;;
23802;SDS011;12082;51.786;6.018;2024-01-27T12:07:18;17.60;;;5.23;;
23802;SDS011;12082;51.786;6.018;2024-01-27T12:09:45;9.83;;;5.67;;
23802;SDS011;12082;51.786;6.018;2024-01-27T12:12:12;12.70;;;5.50;;
23802;SDS011;12082;51.786;6.018;2024-01-27T12:14:44;12.47;;;5.10;;
23802;SDS011;12082;51.786;6.018;2024-01-27T12:17:10;13.33;;;5.20;;
23802;SDS011;12082;51.786;6.018;2024-01-27T12:19:37;18.67;;;5.40;;
23802;SDS011;12082;51.786;6.018;2024-01-27T12:22:03;19.13;;;4.93;;
23802;SDS011;12082;51.786;6.018;2024-01-27T12:24:29;15.33;;;5.33;;
23802;SDS011;12082;51.786;6.018;2024-01-27T12:26:59;15.03;;;4.70;;
23802;SDS011;12082;51.786;6.018;2024-01-27T12:29:25;16.80;;;5.53;;
23802;SDS011;12082;51.786;6.018;2024-01-27T12:31:51;14.77;;;4.87;;
23802;SDS011;12082;51.786;6.018;2024-01-27T12:34:18;15.83;;;4.83;;
23802;SDS011;12082;51.786;6.018;2024-01-27T12:36:44;15.63;;;5.50;;
23802;SDS011;12082;51.786;6.018;2024-01-27T12:39:10;13.73;;;5.23;;
23802;SDS011;12082;51.786;6.018;2024-01-27T12:41:36;12.07;;;4.80;;
23802;SDS011;12082;51.786;6.018;2024-01-27T12:44:03;17.43;;;5.23;;
23802;SDS011;12082;51.786;6.018;2024-01-27T12:46:29;20.00;;;5.50;;
23802;SDS011;12082;51.786;6.018;2024-01-27T12:48:55;13.07;;;4.70;;
23802;SDS011;12082;51.786;6.018;2024-01-27T12:51:21;9.40;;;5.60;;
23802;SDS011;12082;51.786;6.018;2024-01-27T12:53:47;16.13;;;5.33;;
23802;SDS011;12082;51.786;6.018;2024-01-27T12:56:13;17.33;;;5.40;;
23802;SDS011;12082;51.786;6.018;2024-01-27T12:58:40;12.83;;;4.93;;
23802;SDS011;12082;51.786;6.018;2024-01-27T13:01:06;13.23;;;4.53;;
23802;SDS011;12082;51.786;6.018;2024-01-27T13:03:33;14.07;;;4.70;;
23802;SDS011;12082;51.786;6.018;2024-01-27T13:05:58;10.87;;;4.43;;
23802;SDS011;12082;51.786;6.018;2024-01-27T13:08:25;10.00;;;4.27;;
23802;SDS011;12082;51.786;6.018;2024-01-27T13:10:51;8.40;;;4.17;;
23802;SDS011;12082;51.786;6.018;2024-01-27T13:13:17;15.33;;;4.53;;
23802;SDS011;12082;51.786;6.018;2024-01-27T13:15:43;10.77;;;5.87;;
23802;SDS011;12082;51.786;6.018;2024-01-27T13:18:09;13.47;;;4.07;;
23802;SDS011;12082;51.786;6.018;2024-01-27T13:20:35;14.00;;;4.20;;
23802;SDS011;12082;51.786;6.018;2024-01-27T13:23:01;12.97;;;4.27;;
23802;SDS011;12082;51.786;6.018;2024-01-27T13:25:27;13.13;;;3.90;;
23802;SDS011;12082;51.786;6.018;2024-01-27T13:27:53;18.40;;;4.90;;
23802;SDS011;12082;51.786;6.018;2024-01-27T13:30:20;12.40;;;4.07;;
23802;SDS011;12082;51.786;6.018;2024-01-27T13:32:46;10.53;;;4.03;;
23802;SDS011;12082;51.786;6.018;2024-01-27T13:35:12;9.43;;;3.40;;
23802;SDS011;12082;51.786;6.018;2024-01-27T13:37:38;18.60;;;4.77;;
23802;SDS011;12082;51.786;6.018;2024-01-27T13:40:05;13.33;;;3.80;;
23802;SDS011;12082;51.786;6.018;2024-01-27T13:42:32;12.33;;;4.00;;
23802;SDS011;12082;51.786;6.018;2024-01-27T13:44:58;10.77;;;4.00;;
23802;SDS011;12082;51.786;6.018;2024-01-27T13:47:24;10.93;;;3.47;;
23802;SDS011;12082;51.786;6.018;2024-01-27T13:49:50;8.47;;;3.50;;
23802;SDS011;12082;51.786;6.018;2024-01-27T13:52:16;14.77;;;4.70;;
23802;SDS011;12082;51.786;6.018;2024-01-27T13:54:42;13.03;;;4.43;;
23802;SDS011;12082;51.786;6.018;2024-01-27T13:57:09;7.10;;;3.30;;
23802;SDS011;12082;51.786;6.018;2024-01-27T13:59:37;10.23;;;3.70;;
23802;SDS011;12082;51.786;6.018;2024-01-27T14:02:04;9.47;;;3.93;;
23802;SDS011;12082;51.786;6.018;2024-01-27T14:04:29;10.63;;;3.37;;
23802;SDS011;12082;51.786;6.018;2024-01-27T14:06:55;10.50;;;4.03;;
23802;SDS011;12082;51.786;6.018;2024-01-27T14:09:22;8.47;;;3.93;;
23802;SDS011;12082;51.786;6.018;2024-01-27T14:11:48;9.77;;;3.37;;
23802;SDS011;12082;51.786;6.018;2024-01-27T14:14:14;11.33;;;3.50;;
23802;SDS011;12082;51.786;6.018;2024-01-27T14:16:43;8.10;;;3.40;;
23802;SDS011;12082;51.786;6.018;2024-01-27T14:19:10;14.57;;;4.10;;
23802;SDS011;12082;51.786;6.018;2024-01-27T14:21:36;13.90;;;4.00;;
23802;SDS011;12082;51.786;6.018;2024-01-27T14:24:03;7.67;;;3.23;;
23802;SDS011;12082;51.786;6.018;2024-01-27T14:26:31;7.00;;;3.13;;